Forside
METAR-TAF:

METAR-TAF

Lufthavne :

Växjö, Sverige

Breddekreds: 56-51N, længdekreds: 014-50E, højde: 199 m

Aktuelle vejr

Denne rapport blev lavet for 21 minutter siden, kl. 10:20 UTC
Vind 4 kt fra østsydøst, varierende mellem østnordøst og sydøst
Temperatur 6°C
Fugtighed 100%
Tryk 1010 hPa
Sigt: 3900 m
dis,

METAR: ESMX 021020Z AUTO 12004KT 060V140 3900 BR OVC003/// 06/06 Q1010

Tid: 11:41 (10:41 UTC)

Vejrudsigter

Denne rapport blev lavet for 23 timer og 11 minutter siden, kl. 11:30 UTC
Foreløbig gælder fra 01 på 12 UTC til 01 på 16 UTC
Vind 8 kt fra sydøst
Sigt: 2500 m
Brudte skyer i en højde af 300 ft
dis
Midlertidig
fra 01 på 12 UTC til 01 på 16 UTC
Sigt: 0100 m
i en højde af 100 ft
tåge,

TAF: ESMX 011130Z 0112/0116 13008KT 2500 BR BKN003 TEMPO 0112/0116 0100 FG VV001

Vejrobservationer og prognoser fra mere end 4000 lufthavne (METAR og TAF).

De gule og røde prikker repræsenterer de meteorologiske stationer.

Flyt musen over at se navnet på stationen.

Så klik over at se vejr observationer og prognoser.

At skifte det kort: Klik på de grønne knapper med et sort kors for at zoome ind; på den grønne knap med en bindestreg for at zoome ud; eller på de grønne pile for tilstødende kort.


METAR-TAF: